createdAt,value
2023-07-06T00:01:59.363Z,100273.84
2023-07-06T00:05:01.263Z,100281.34
2023-07-06T00:08:03.426Z,100271.25
2023-07-06T00:11:06.172Z,100267.84
2023-07-06T00:14:10.030Z,100278.72
2023-07-06T00:17:13.876Z,100292.69
2023-07-06T00:20:15.736Z,100294.03
2023-07-06T00:23:17.722Z,100314.50
2023-07-06T00:26:21.340Z,100313.09
2023-07-06T00:29:23.148Z,100318.16
2023-07-06T00:32:29.833Z,100313.56
2023-07-06T00:35:31.961Z,100312.34
2023-07-06T00:38:33.716Z,100311.31
2023-07-06T00:41:35.474Z,100305.97
2023-07-06T00:44:55.373Z,100306.38
2023-07-06T00:48:00.906Z,100318.78
2023-07-06T00:51:09.666Z,100319.78
2023-07-06T00:54:17.750Z,100323.62
2023-07-06T00:57:22.095Z,100299.13
2023-07-06T01:00:24.313Z,100293.25
2023-07-06T01:03:26.325Z,100289.31
2023-07-06T01:06:33.566Z,100277.81
2023-07-06T01:09:35.538Z,100286.75
2023-07-06T01:12:37.604Z,100280.69
2023-07-06T01:16:11.433Z,100282.06
2023-07-06T01:19:30.035Z,100280.87
2023-07-06T01:22:37.777Z,100283.97
2023-07-06T01:26:00.699Z,100276.31
2023-07-06T01:29:05.544Z,100276.31
2023-07-06T01:32:18.458Z,100283.31
2023-07-06T01:35:28.575Z,100281.78
2023-07-06T01:38:31.003Z,100278.88
2023-07-06T01:41:32.918Z,100277.31
2023-07-06T01:44:35.095Z,100289.84
2023-07-06T01:47:40.508Z,100286.47
2023-07-06T01:51:00.656Z,100284.75
2023-07-06T01:54:07.825Z,100279.91
2023-07-06T01:57:21.458Z,100275.94
2023-07-06T02:00:24.227Z,100281.37
2023-07-06T02:03:26.701Z,100274.63
2023-07-06T02:06:29.233Z,100276.50
2023-07-06T02:09:31.264Z,100270.50
2023-07-06T02:12:33.013Z,100280.81
2023-07-06T02:15:34.904Z,100285.13
2023-07-06T02:18:37.243Z,100270.63
2023-07-06T02:21:40.083Z,100274.59
2023-07-06T02:24:41.980Z,100288.19
2023-07-06T02:27:43.791Z,100288.97
2023-07-06T02:30:45.599Z,100284.09
2023-07-06T02:33:47.823Z,100271.34
2023-07-06T02:36:50.609Z,100285.59
2023-07-06T02:39:52.502Z,100291.69
2023-07-06T02:42:54.264Z,100310.94
2023-07-06T02:45:56.522Z,100319.28
2023-07-06T02:48:58.448Z,100333.28
2023-07-06T02:52:03.671Z,100327.59
2023-07-06T02:55:06.081Z,100322.91
2023-07-06T02:58:07.909Z,100322.59
2023-07-06T03:01:09.745Z,100323.31
2023-07-06T03:04:11.733Z,100324.97
2023-07-06T03:07:13.537Z,100325.53
2023-07-06T03:10:18.611Z,100322.25
2023-07-06T03:13:20.399Z,100320.91
2023-07-06T03:16:22.569Z,100322.28
2023-07-06T03:19:24.419Z,100318.25
2023-07-06T03:22:26.695Z,100313.47
2023-07-06T03:25:29.294Z,100312.69
2023-07-06T03:28:31.103Z,100320.53
2023-07-06T03:31:34.447Z,100319.75
2023-07-06T03:34:37.189Z,100309.03
2023-07-06T03:37:40.696Z,100308.88
2023-07-06T03:40:42.447Z,100313.69
2023-07-06T03:43:44.921Z,100304.69
2023-07-06T03:46:46.717Z,100309.69
2023-07-06T03:49:48.507Z,100274.50
2023-07-06T03:52:50.379Z,100254.44
2023-07-06T03:55:55.349Z,100235.97
2023-07-06T03:58:58.184Z,100225.84
2023-07-06T04:02:00.768Z,100226.97
2023-07-06T04:05:03.114Z,100285.00
2023-07-06T04:08:12.923Z,100319.59
2023-07-06T04:11:14.648Z,100307.72
2023-07-06T04:14:16.467Z,100307.91
2023-07-06T04:17:18.233Z,100315.66
2023-07-06T04:20:22.787Z,100236.16
2023-07-06T04:23:25.072Z,100213.97
2023-07-06T04:26:26.810Z,100208.72
2023-07-06T04:29:30.695Z,100246.87
2023-07-06T04:32:32.696Z,100277.00
2023-07-06T04:35:35.417Z,100308.16
2023-07-06T04:38:38.116Z,100293.06
2023-07-06T04:41:39.973Z,100260.59
2023-07-06T04:44:41.870Z,100273.81
2023-07-06T04:47:45.498Z,100291.94
2023-07-06T04:50:47.499Z,100301.84
2023-07-06T04:53:49.581Z,100327.41
2023-07-06T04:56:52.279Z,100343.16
2023-07-06T04:59:54.148Z,100335.50
2023-07-06T05:02:59.670Z,100327.25
2023-07-06T05:06:07.082Z,100338.47
2023-07-06T05:09:08.890Z,100337.41
2023-07-06T05:12:11.350Z,100338.72
2023-07-06T05:15:13.929Z,100336.63
2023-07-06T05:18:16.297Z,100338.28
2023-07-06T05:21:18.165Z,100331.97
2023-07-06T05:24:19.903Z,100339.31
2023-07-06T05:27:21.682Z,100330.84
2023-07-06T05:30:25.325Z,100327.50
2023-07-06T05:33:27.108Z,100330.84
2023-07-06T05:36:28.955Z,100321.63
2023-07-06T05:39:30.936Z,100311.84
2023-07-06T05:42:33.027Z,100328.41
2023-07-06T05:45:34.951Z,100326.38
2023-07-06T05:48:36.725Z,100337.81
2023-07-06T05:51:38.477Z,100338.34
2023-07-06T05:54:40.623Z,100348.94
2023-07-06T05:57:42.971Z,100341.25
2023-07-06T06:00:44.723Z,100346.66
2023-07-06T06:03:47.320Z,100344.97
2023-07-06T06:06:55.279Z,100342.63
2023-07-06T06:09:57.020Z,100348.91
2023-07-06T06:12:59.077Z,100347.34
2023-07-06T06:16:00.899Z,100343.91
2023-07-06T06:19:03.840Z,100347.81
2023-07-06T06:22:07.292Z,100357.62
2023-07-06T06:25:09.989Z,100361.22
2023-07-06T06:28:11.724Z,100355.00
2023-07-06T06:31:13.499Z,100355.84
2023-07-06T06:34:15.294Z,100364.75
2023-07-06T06:37:18.057Z,100377.69
2023-07-06T06:40:21.111Z,100392.25
2023-07-06T06:43:24.436Z,100400.31
2023-07-06T06:46:26.356Z,100415.69
2023-07-06T06:49:28.720Z,100430.09
2023-07-06T06:52:30.506Z,100438.88
2023-07-06T06:55:32.331Z,100447.28
2023-07-06T06:58:34.517Z,100441.47
2023-07-06T07:01:37.421Z,100462.16
2023-07-06T07:04:39.938Z,100452.25
2023-07-06T07:07:42.326Z,100448.34
2023-07-06T07:10:44.225Z,100453.28
2023-07-06T07:13:46.948Z,100451.91
2023-07-06T07:16:48.784Z,100459.53
2023-07-06T07:19:50.639Z,100446.72
2023-07-06T07:22:52.434Z,100436.81
2023-07-06T07:25:54.997Z,100422.38
2023-07-06T07:28:56.881Z,100412.22
2023-07-06T07:31:58.843Z,100415.69
2023-07-06T07:35:00.601Z,100404.44
2023-07-06T07:38:02.656Z,100400.88
2023-07-06T07:41:07.762Z,100366.72
2023-07-06T07:44:10.290Z,100357.72
2023-07-06T07:47:12.868Z,100356.38
2023-07-06T07:50:14.800Z,100367.28
2023-07-06T07:53:16.686Z,100367.91
2023-07-06T07:56:19.114Z,100373.13
2023-07-06T07:59:21.624Z,100365.22
2023-07-06T08:02:23.678Z,100360.09
2023-07-06T08:05:25.596Z,100358.84
2023-07-06T08:08:27.403Z,100358.84
2023-07-06T08:11:29.996Z,100362.22
2023-07-06T08:14:42.859Z,100346.69
2023-07-06T08:17:44.749Z,100358.34
2023-07-06T08:21:11.761Z,100357.28
2023-07-06T08:24:10.821Z,100363.84
2023-07-06T08:27:13.894Z,100334.34
2023-07-06T08:30:16.856Z,100348.13
2023-07-06T08:33:22.216Z,100348.38
2023-07-06T08:36:24.054Z,100350.44
2023-07-06T08:39:25.978Z,100351.28
2023-07-06T08:42:28.073Z,100369.75
2023-07-06T08:45:40.539Z,100380.25
2023-07-06T08:48:42.442Z,100405.56
2023-07-06T08:51:44.786Z,100399.25
2023-07-06T08:54:51.377Z,100411.41
2023-07-06T08:57:53.971Z,100404.34
2023-07-06T09:01:01.695Z,100372.69
2023-07-06T09:04:13.690Z,100362.41
2023-07-06T09:07:17.936Z,100350.00
2023-07-06T09:10:26.301Z,100361.34
2023-07-06T09:13:29.474Z,100365.09
2023-07-06T09:16:35.302Z,100356.41
2023-07-06T09:19:39.959Z,100342.84
2023-07-06T09:22:42.450Z,100353.38
2023-07-06T09:25:47.056Z,100338.09
2023-07-06T09:28:48.877Z,100339.69
2023-07-06T09:31:50.667Z,100397.72
2023-07-06T09:35:01.533Z,100366.50
2023-07-06T09:38:04.170Z,100350.84
2023-07-06T09:41:28.180Z,100345.34
2023-07-06T09:44:31.686Z,100375.75
2023-07-06T09:47:34.636Z,100379.84
2023-07-06T09:50:44.280Z,100372.69
2023-07-06T09:53:53.626Z,100368.16
2023-07-06T09:56:55.587Z,100354.19
2023-07-06T09:59:59.462Z,100352.50
2023-07-06T10:03:10.676Z,100340.03
2023-07-06T10:06:45.766Z,100336.22
2023-07-06T10:10:03.591Z,100331.53
2023-07-06T10:13:11.148Z,100315.00
2023-07-06T10:16:16.504Z,100309.31
2023-07-06T10:19:29.993Z,100304.59
2023-07-06T10:22:48.303Z,100277.56
2023-07-06T10:25:58.822Z,100265.47
2023-07-06T10:29:10.748Z,100250.44
2023-07-06T10:32:15.942Z,100262.94
2023-07-06T10:35:22.060Z,100254.37
2023-07-06T10:38:23.831Z,100258.00
2023-07-06T10:41:33.110Z,100247.56
2023-07-06T10:44:49.938Z,100254.19
2023-07-06T10:47:51.891Z,100257.91
2023-07-06T10:51:21.745Z,100231.34
2023-07-06T10:54:26.824Z,100241.75
2023-07-06T10:57:35.826Z,100241.81
2023-07-06T11:00:40.011Z,100253.59
2023-07-06T11:03:44.019Z,100263.84
2023-07-06T11:06:54.076Z,100274.09
2023-07-06T11:10:14.427Z,100260.53
2023-07-06T11:13:20.241Z,100267.72
2023-07-06T11:16:28.094Z,100286.44
2023-07-06T11:19:37.831Z,100277.97
2023-07-06T11:22:40.403Z,100285.16
2023-07-06T11:25:42.541Z,100287.41
2023-07-06T11:28:45.103Z,100278.88
2023-07-06T11:32:00.117Z,100277.34
2023-07-06T11:35:12.142Z,100259.97
2023-07-06T11:38:40.203Z,100283.09
2023-07-06T11:41:54.816Z,100264.19
2023-07-06T11:44:56.826Z,100280.47
2023-07-06T11:48:36.247Z,100272.88
2023-07-06T11:51:38.624Z,100245.88
2023-07-06T11:54:52.428Z,100267.06
2023-07-06T11:58:06.630Z,100258.06
2023-07-06T12:01:21.815Z,100267.25
2023-07-06T12:04:25.364Z,100257.78
2023-07-06T12:07:32.072Z,100246.72
2023-07-06T12:10:35.422Z,100237.59
2023-07-06T12:13:45.942Z,100231.09
2023-07-06T12:16:49.450Z,100214.72
2023-07-06T12:19:59.164Z,100202.84
2023-07-06T12:23:01.379Z,100210.84
2023-07-06T12:26:04.477Z,100220.66
2023-07-06T12:29:06.260Z,100217.19
2023-07-06T12:32:21.138Z,100208.25
2023-07-06T12:35:23.422Z,100187.16
2023-07-06T12:38:25.489Z,100205.75
2023-07-06T12:41:27.658Z,100201.91
2023-07-06T12:44:30.798Z,100192.56
2023-07-06T12:47:34.099Z,100183.34
2023-07-06T12:50:38.998Z,100209.47
2023-07-06T12:53:40.964Z,100207.53
2023-07-06T12:56:45.484Z,100190.84
2023-07-06T12:59:51.543Z,100182.41
2023-07-06T13:02:58.277Z,100180.78
2023-07-06T13:06:01.236Z,100182.50
2023-07-06T13:09:03.632Z,100147.84
2023-07-06T13:12:11.165Z,100178.00
2023-07-06T13:15:19.386Z,100147.06
2023-07-06T13:18:21.260Z,100159.25
2023-07-06T13:21:26.964Z,100147.50
2023-07-06T13:24:33.495Z,100157.38
2023-07-06T13:27:35.270Z,100237.88
2023-07-06T13:30:37.483Z,100209.06
2023-07-06T13:33:41.254Z,100194.00
2023-07-06T13:36:43.230Z,100203.75
2023-07-06T13:39:45.242Z,100268.19
2023-07-06T13:42:49.037Z,100315.69
2023-07-06T13:45:51.373Z,100335.25
2023-07-06T13:48:53.609Z,100329.50
2023-07-06T13:51:56.569Z,100349.53
2023-07-06T13:54:58.778Z,100350.88
2023-07-06T13:58:00.577Z,100337.88
2023-07-06T14:01:03.452Z,100323.09
2023-07-06T14:04:05.731Z,100331.34
2023-07-06T14:07:07.629Z,100316.09
2023-07-06T14:10:10.400Z,100353.16
2023-07-06T14:13:14.435Z,100352.13
2023-07-06T14:16:16.284Z,100361.97
2023-07-06T14:19:18.091Z,100355.19
2023-07-06T14:22:23.309Z,100369.72
2023-07-06T14:25:26.737Z,100368.44
2023-07-06T14:28:29.014Z,100391.56
2023-07-06T14:31:34.095Z,100387.28
2023-07-06T14:34:35.854Z,100368.06
2023-07-06T14:37:40.095Z,100383.44
2023-07-06T14:40:43.878Z,100377.91
2023-07-06T14:43:45.598Z,100365.16
2023-07-06T14:46:47.344Z,100389.56
2023-07-06T14:49:49.854Z,100357.31
2023-07-06T14:52:55.770Z,100365.03
2023-07-06T14:55:58.252Z,100383.50
2023-07-06T14:59:00.192Z,100356.63
2023-07-06T15:02:01.935Z,100391.12
2023-07-06T15:05:04.612Z,100375.19
2023-07-06T15:08:06.943Z,100360.94
2023-07-06T15:11:08.747Z,100343.53
2023-07-06T15:14:10.608Z,100334.28
2023-07-06T15:17:12.360Z,100348.50
2023-07-06T15:20:14.302Z,100322.91
2023-07-06T15:23:16.034Z,100327.16
2023-07-06T15:26:17.760Z,100333.25
2023-07-06T15:29:19.591Z,100327.78
2023-07-06T15:32:21.742Z,100349.19
2023-07-06T15:35:23.736Z,100339.44
2023-07-06T15:38:26.433Z,100344.16
2023-07-06T15:41:36.317Z,100325.59
2023-07-06T15:44:38.177Z,100339.84
2023-07-06T15:47:52.304Z,100331.22
2023-07-06T15:50:59.715Z,100317.81
2023-07-06T15:54:02.282Z,100321.00
2023-07-06T15:57:04.260Z,100317.75
2023-07-06T16:00:11.580Z,100325.56
2023-07-06T16:03:13.694Z,100324.44
2023-07-06T16:06:15.559Z,100335.84
2023-07-06T16:09:17.313Z,100338.97
2023-07-06T16:12:19.133Z,100328.94
2023-07-06T16:15:20.919Z,100344.50
2023-07-06T16:18:22.824Z,100344.09
2023-07-06T16:21:24.658Z,100322.22
2023-07-06T16:24:26.441Z,100331.13
2023-07-06T16:27:28.293Z,100328.41
2023-07-06T16:30:30.029Z,100332.63
2023-07-06T16:33:32.308Z,100336.19
2023-07-06T16:36:34.308Z,100353.28
2023-07-06T16:39:36.193Z,100356.09
2023-07-06T16:42:37.930Z,100377.25
2023-07-06T16:45:39.796Z,100384.31
2023-07-06T16:48:41.559Z,100378.84
2023-07-06T16:51:43.297Z,100373.91
2023-07-06T16:54:45.520Z,100379.75
2023-07-06T16:57:47.655Z,100390.06
2023-07-06T17:00:49.385Z,100388.88
2023-07-06T17:03:51.437Z,100372.41
2023-07-06T17:06:54.362Z,100367.97
2023-07-06T17:09:56.138Z,100373.06
2023-07-06T17:12:57.906Z,100367.06
2023-07-06T17:16:00.436Z,100390.78
2023-07-06T17:19:02.201Z,100396.06
2023-07-06T17:22:04.110Z,100421.94
2023-07-06T17:25:06.607Z,100425.00
2023-07-06T17:28:08.408Z,100428.81
2023-07-06T17:31:13.870Z,100434.88
2023-07-06T17:34:15.800Z,100438.75
2023-07-06T17:37:17.662Z,100450.13
2023-07-06T17:40:19.385Z,100452.66
2023-07-06T17:43:21.122Z,100458.50
2023-07-06T17:46:22.940Z,100459.56
2023-07-06T17:49:24.724Z,100465.97
2023-07-06T17:52:26.547Z,100487.84
2023-07-06T17:55:28.966Z,100493.22
2023-07-06T17:58:30.865Z,100483.47
2023-07-06T18:01:32.844Z,100474.66
2023-07-06T18:04:34.621Z,100463.56
2023-07-06T18:07:36.402Z,100474.59
2023-07-06T18:10:38.660Z,100490.78
2023-07-06T18:13:40.470Z,100493.28
2023-07-06T18:16:42.263Z,100499.97
2023-07-06T18:19:44.180Z,100511.25
2023-07-06T18:22:46.106Z,100502.19
2023-07-06T18:25:48.326Z,100503.78
2023-07-06T18:28:50.162Z,100514.06
2023-07-06T18:31:51.960Z,100511.16
2023-07-06T18:34:53.850Z,100522.28
2023-07-06T18:37:55.665Z,100522.53
2023-07-06T18:41:01.547Z,100525.09
2023-07-06T18:44:03.572Z,100533.38
2023-07-06T18:47:05.821Z,100541.63
2023-07-06T18:50:08.085Z,100533.47
2023-07-06T18:53:09.830Z,100548.56
2023-07-06T18:56:11.638Z,100554.41
2023-07-06T18:59:13.461Z,100571.69
2023-07-06T19:02:15.327Z,100577.19
2023-07-06T19:05:17.327Z,100577.19
2023-07-06T19:08:19.157Z,100580.63
2023-07-06T19:11:20.984Z,100584.19
2023-07-06T19:14:22.809Z,100590.72
2023-07-06T19:17:24.686Z,100598.03
2023-07-06T19:20:26.627Z,100597.53
2023-07-06T19:23:29.806Z,100602.84
2023-07-06T19:26:31.627Z,100601.31
2023-07-06T19:29:33.397Z,100603.56
2023-07-06T19:32:35.158Z,100595.00
2023-07-06T19:35:37.653Z,100601.47
2023-07-06T19:38:39.489Z,100590.75
2023-07-06T19:41:41.368Z,100600.47
2023-07-06T19:44:43.228Z,100596.06
2023-07-06T19:47:45.602Z,100605.94
2023-07-06T19:50:48.587Z,100596.53
2023-07-06T19:53:52.257Z,100595.88
2023-07-06T19:56:54.419Z,100604.94
2023-07-06T19:59:56.204Z,100609.91
2023-07-06T20:02:58.068Z,100606.47
2023-07-06T20:06:00.471Z,100604.94
2023-07-06T20:09:02.332Z,100604.28
2023-07-06T20:12:04.406Z,100605.28
2023-07-06T20:15:06.896Z,100601.19
2023-07-06T20:18:08.928Z,100595.22
2023-07-06T20:21:10.877Z,100610.22
2023-07-06T20:24:14.157Z,100610.75
2023-07-06T20:27:15.984Z,100613.13
2023-07-06T20:30:17.822Z,100617.03
2023-07-06T20:33:21.021Z,100625.38
2023-07-06T20:36:22.848Z,100618.75
2023-07-06T20:39:24.709Z,100621.78
2023-07-06T20:42:26.497Z,100627.75
2023-07-06T20:45:28.373Z,100627.41
2023-07-06T20:48:30.214Z,100630.81
2023-07-06T20:51:32.023Z,100632.50
2023-07-06T20:54:33.887Z,100630.94
2023-07-06T20:57:35.721Z,100640.97
2023-07-06T21:00:40.256Z,100640.47
2023-07-06T21:03:43.402Z,100624.94
2023-07-06T21:06:45.230Z,100642.53
2023-07-06T21:09:47.021Z,100630.75
2023-07-06T21:12:49.112Z,100642.00
2023-07-06T21:15:52.107Z,100639.09
2023-07-06T21:18:54.739Z,100640.28
2023-07-06T21:21:56.503Z,100648.25
2023-07-06T21:24:58.316Z,100660.13
2023-07-06T21:28:00.190Z,100660.59
2023-07-06T21:31:01.968Z,100660.59
2023-07-06T21:34:04.192Z,100659.25
2023-07-06T21:37:06.068Z,100675.75
2023-07-06T21:40:08.618Z,100669.28
2023-07-06T21:43:10.489Z,100668.50
2023-07-06T21:46:13.059Z,100654.94
2023-07-06T21:49:14.872Z,100668.81
2023-07-06T21:52:16.616Z,100663.91
2023-07-06T21:55:18.977Z,100652.62
2023-07-06T21:58:20.717Z,100653.50
2023-07-06T22:01:22.580Z,100646.59
2023-07-06T22:04:24.595Z,100650.00
2023-07-06T22:07:26.543Z,100641.56
2023-07-06T22:10:28.294Z,100647.59
2023-07-06T22:13:30.100Z,100643.53
2023-07-06T22:16:32.104Z,100642.31
2023-07-06T22:19:34.061Z,100638.88
2023-07-06T22:22:36.053Z,100634.44
2023-07-06T22:25:37.847Z,100641.91
2023-07-06T22:28:39.725Z,100645.97
2023-07-06T22:31:42.157Z,100643.41
2023-07-06T22:34:43.976Z,100633.87
2023-07-06T22:37:45.768Z,100643.25
2023-07-06T22:40:47.566Z,100639.97
2023-07-06T22:43:49.301Z,100644.56
2023-07-06T22:46:52.720Z,100640.84
2023-07-06T22:49:54.461Z,100640.69
2023-07-06T22:52:59.911Z,100644.25
2023-07-06T22:56:01.704Z,100639.50
2023-07-06T22:59:03.704Z,100638.97
2023-07-06T23:02:05.529Z,100651.25
2023-07-06T23:05:07.890Z,100654.94
2023-07-06T23:08:11.527Z,100646.31
2023-07-06T23:11:14.583Z,100647.16
2023-07-06T23:14:16.375Z,100656.31
2023-07-06T23:17:18.275Z,100655.88
2023-07-06T23:20:21.029Z,100653.87
2023-07-06T23:23:22.788Z,100662.78
2023-07-06T23:26:24.932Z,100657.41
2023-07-06T23:29:34.199Z,100654.69
2023-07-06T23:32:44.747Z,100656.53
2023-07-06T23:35:47.194Z,100650.09
2023-07-06T23:38:51.558Z,100654.37
2023-07-06T23:41:53.288Z,100656.78
2023-07-06T23:44:55.051Z,100654.06
2023-07-06T23:47:56.916Z,100656.78
2023-07-06T23:50:58.975Z,100660.16
2023-07-06T23:54:01.000Z,100659.56
2023-07-06T23:57:03.001Z,100657.87
